Time;durP1;ratioP1;P1;durP2;ratioP2;P2;SDS_P1;SDS_P2;PMS_P1;PMS_P2;Temp;Humidity;BMP_temperature;BMP_pressure;BME280_temperature;BME280_humidity;BME280_pressure;Samples;Min_cycle;Max_cycle;Signal;HPM_P1;HPM_P2
2022/01/02 00:00:25;;;;;;;2.33;1.02;;;12.40;99.90;;;;;;5033932;28;20141;-77
2022/01/02 00:03:02;;;;;;;2.58;1.00;;;12.50;99.90;;;;;;5033598;28;20028;-76
2022/01/02 00:05:30;;;;;;;1.55;1.00;;;12.70;99.90;;;;;;5051918;28;20350;-76
2022/01/02 00:08:06;;;;;;;3.17;1.20;;;12.80;99.90;;;;;;5051926;28;20040;-76
2022/01/02 00:10:45;;;;;;;2.85;0.93;;;12.80;99.90;;;;;;5051314;28;20382;-76
2022/01/02 00:13:21;;;;;;;3.28;0.95;;;12.80;99.90;;;;;;5052070;28;20028;-77
2022/01/02 00:15:47;;;;;;;2.78;1.00;;;12.70;99.90;;;;;;5052454;28;20025;-77
2022/01/02 00:18:15;;;;;;;4.22;1.10;;;12.60;99.90;;;;;;5033523;28;20068;-76
2022/01/02 00:20:48;;;;;;;2.63;1.00;;;12.60;99.90;;;;;;5051432;28;20025;-75
2022/01/02 00:23:21;;;;;;;2.33;0.93;;;12.60;99.90;;;;;;5051816;28;20084;-76
2022/01/02 00:25:54;;;;;;;2.85;0.93;;;12.70;99.90;;;;;;5051173;28;20517;-76
2022/01/02 00:28:20;;;;;;;5.68;1.00;;;12.80;99.90;;;;;;5051596;28;20089;-76
2022/01/02 00:30:48;;;;;;;2.00;0.75;;;12.90;99.90;;;;;;5051427;28;20067;-76
2022/01/02 00:33:14;;;;;;;2.72;0.90;;;12.90;99.90;;;;;;5051400;28;20039;-77
2022/01/02 00:35:40;;;;;;;2.83;1.13;;;12.80;99.90;;;;;;5051293;28;20035;-77
2022/01/02 00:38:07;;;;;;;3.30;1.03;;;12.70;99.90;;;;;;5051616;28;20111;-77
2022/01/02 00:40:38;;;;;;;2.13;0.80;;;12.80;99.90;;;;;;5051316;28;20095;-76
2022/01/02 00:43:09;;;;;;;7.95;0.95;;;12.80;99.90;;;;;;5033161;28;20029;-76
2022/01/02 00:45:45;;;;;;;2.60;0.90;;;12.80;99.90;;;;;;5051629;28;20025;-76
2022/01/02 00:48:17;;;;;;;2.17;0.77;;;12.80;99.90;;;;;;5051851;28;20021;-76
2022/01/02 00:50:49;;;;;;;2.17;0.80;;;12.70;99.90;;;;;;5051412;28;20509;-76
2022/01/02 00:53:18;;;;;;;3.53;1.00;;;12.70;99.90;;;;;;5033547;28;20120;-77
2022/01/02 00:55:46;;;;;;;2.47;1.02;;;12.60;99.90;;;;;;5034028;28;20262;-77
2022/01/02 00:58:19;;;;;;;2.53;0.98;;;12.60;99.90;;;;;;5051354;28;20033;-77
2022/01/02 01:00:50;;;;;;;2.42;0.65;;;12.60;99.90;;;;;;5051421;28;20315;-76
2022/01/02 01:03:33;;;;;;;2.83;0.93;;;12.60;99.90;;;;;;5033295;28;20143;-76
2022/01/02 01:06:04;;;;;;;3.30;1.10;;;12.50;99.90;;;;;;5051829;28;20028;-76
2022/01/02 01:08:32;;;;;;;1.48;0.80;;;12.50;99.90;;;;;;5051324;28;20029;-76
2022/01/02 01:11:03;;;;;;;2.80;1.08;;;12.50;99.90;;;;;;5051682;28;20415;-77
2022/01/02 01:13:30;;;;;;;2.28;0.90;;;12.50;99.90;;;;;;5051655;28;20033;-76
2022/01/02 01:15:56;;;;;;;3.00;1.05;;;12.40;99.90;;;;;;5051563;28;20021;-76
2022/01/02 01:18:23;;;;;;;4.13;1.10;;;12.40;99.90;;;;;;5051350;28;20130;-76
2022/01/02 01:20:51;;;;;;;2.75;1.20;;;12.30;99.90;;;;;;5051651;28;20724;-77
2022/01/02 01:23:17;;;;;;;4.38;1.00;;;12.30;99.90;;;;;;5035367;28;20080;-76
2022/01/02 01:25:46;;;;;;;3.00;0.70;;;12.20;99.90;;;;;;5054609;28;20152;-75
2022/01/02 01:28:13;;;;;;;2.95;1.15;;;12.20;99.90;;;;;;5037021;28;20064;-76
2022/01/02 01:30:39;;;;;;;3.13;1.00;;;12.20;99.90;;;;;;5055165;28;20025;-77
2022/01/02 01:33:06;;;;;;;2.20;0.90;;;12.20;99.90;;;;;;5054107;28;20147;-75
2022/01/02 01:35:32;;;;;;;2.88;1.00;;;12.10;99.90;;;;;;5053236;28;20029;-76
2022/01/02 01:37:58;;;;;;;3.47;1.17;;;12.10;99.90;;;;;;5054629;28;20029;-76
2022/01/02 01:40:24;;;;;;;1.13;0.60;;;12.00;99.90;;;;;;5054689;28;20036;-75
2022/01/02 01:43:00;;;;;;;3.13;0.93;;;12.00;99.90;;;;;;5054857;28;20047;-76
2022/01/02 01:45:29;;;;;;;4.93;1.10;;;12.00;99.90;;;;;;5054561;28;20448;-75
2022/01/02 01:48:02;;;;;;;2.70;1.10;;;11.90;99.90;;;;;;5036531;28;20028;-76
2022/01/02 01:50:35;;;;;;;3.67;1.08;;;11.80;99.90;;;;;;5054594;28;20030;-75
2022/01/02 01:53:01;;;;;;;3.10;0.93;;;11.80;99.90;;;;;;5054662;28;20495;-76
2022/01/02 01:55:27;;;;;;;4.35;1.52;;;11.80;99.90;;;;;;5053108;28;20534;-75
2022/01/02 01:57:54;;;;;;;2.73;1.20;;;11.80;99.90;;;;;;5034491;28;20501;-75
2022/01/02 02:00:23;;;;;;;3.30;1.05;;;11.80;99.90;;;;;;5034982;28;20021;-76
2022/01/02 02:02:49;;;;;;;3.60;1.10;;;11.80;99.90;;;;;;5034221;28;20167;-77
2022/01/02 02:05:16;;;;;;;4.28;1.27;;;11.70;99.90;;;;;;5034646;28;20031;-75
2022/01/02 02:07:44;;;;;;;4.20;0.88;;;11.80;99.90;;;;;;5034469;28;20056;-75
2022/01/02 02:10:23;;;;;;;4.22;0.90;;;11.80;99.90;;;;;;5034471;28;20034;-76
2022/01/02 02:12:51;;;;;;;3.85;1.00;;;11.80;99.90;;;;;;5034003;28;20363;-77
2022/01/02 02:15:18;;;;;;;2.47;0.80;;;11.80;99.90;;;;;;5034295;28;20033;-76
2022/01/02 02:17:46;;;;;;;1.73;0.57;;;11.90;99.90;;;;;;5034198;28;20048;-75
2022/01/02 02:20:27;;;;;;;1.50;0.80;;;12.00;99.90;;;;;;5034620;28;20025;-75
2022/01/02 02:22:55;;;;;;;4.35;0.85;;;12.00;99.90;;;;;;5034667;28;20036;-77
2022/01/02 02:25:29;;;;;;;1.60;0.70;;;11.90;99.90;;;;;;5034017;28;20049;-74
2022/01/02 02:28:07;;;;;;;2.85;1.17;;;11.90;99.90;;;;;;5016361;28;20355;-76
2022/01/02 02:30:35;;;;;;;3.10;0.80;;;12.00;99.90;;;;;;5034149;28;20026;-76
2022/01/02 02:33:04;;;;;;;1.35;0.60;;;11.90;99.90;;;;;;5015612;28;20033;-75
2022/01/02 02:35:32;;;;;;;2.80;0.90;;;12.00;99.90;;;;;;5033821;28;20490;-76
2022/01/02 02:37:59;;;;;;;3.28;0.82;;;12.00;99.90;;;;;;5034146;28;20079;-76
2022/01/02 02:40:27;;;;;;;3.05;1.10;;;11.90;99.90;;;;;;5033983;28;20028;-76
2022/01/02 02:42:58;;;;;;;3.22;1.00;;;11.70;99.90;;;;;;5033449;28;20367;-76
2022/01/02 02:51:07;;;;;;;4.60;1.25;;;11.70;99.90;;;;;;5033496;28;20115;-76
2022/01/02 02:53:36;;;;;;;2.20;1.23;;;11.80;99.90;;;;;;5015032;28;20029;-76
2022/01/02 02:56:40;;;;;;;2.53;0.88;;;11.70;99.90;;;;;;5051115;28;20568;-75
2022/01/02 02:59:06;;;;;;;5.28;1.00;;;11.70;99.90;;;;;;5034857;28;20036;-76
2022/01/02 03:01:32;;;;;;;3.50;1.10;;;11.70;99.90;;;;;;5053082;28;20025;-76
2022/01/02 03:03:58;;;;;;;2.22;1.00;;;11.80;99.90;;;;;;5052706;28;20022;-76
2022/01/02 03:06:24;;;;;;;1.70;0.75;;;11.90;99.90;;;;;;5052938;28;20025;-76
2022/01/02 03:08:52;;;;;;;2.70;0.75;;;12.00;99.90;;;;;;5052390;28;20116;-76
2022/01/02 03:11:20;;;;;;;2.00;0.90;;;12.00;99.90;;;;;;5052460;28;20055;-75
2022/01/02 03:13:50;;;;;;;3.97;1.42;;;12.00;99.90;;;;;;5052380;28;20500;-76
2022/01/02 03:16:17;;;;;;;2.40;0.95;;;12.00;99.90;;;;;;5052629;28;20386;-76
2022/01/02 03:18:43;;;;;;;;;;;12.00;99.90;;;;;;5052905;28;20059;-76
2022/01/02 03:21:10;;;;;;;2.42;0.90;;;12.00;99.90;;;;;;5034303;28;20059;-76
2022/01/02 03:23:37;;;;;;;2.78;0.85;;;12.00;99.90;;;;;;5052332;28;20083;-77
2022/01/02 03:26:05;;;;;;;2.35;0.88;;;11.90;99.90;;;;;;5052522;28;20338;-75
2022/01/02 03:28:32;;;;;;;1.88;1.02;;;11.90;99.90;;;;;;5052531;28;20055;-76
2022/01/02 03:30:58;;;;;;;4.45;0.90;;;11.90;99.90;;;;;;5034245;28;20185;-76
2022/01/02 03:33:24;;;;;;;4.53;1.25;;;11.80;99.90;;;;;;5042644;28;20434;-76
2022/01/02 03:35:50;;;;;;;1.90;0.60;;;11.70;99.90;;;;;;5032419;28;20029;-75
2022/01/02 03:38:16;;;;;;;1.87;0.60;;;11.70;99.90;;;;;;5032244;28;20104;-76
2022/01/02 03:40:42;;;;;;;3.00;0.83;;;11.70;99.90;;;;;;5032560;28;20439;-75
2022/01/02 03:43:08;;;;;;;1.93;0.80;;;11.70;99.90;;;;;;5032402;28;20036;-76
2022/01/02 03:45:35;;;;;;;2.80;0.80;;;11.70;99.90;;;;;;5031431;28;20078;-77
2022/01/02 03:48:01;;;;;;;2.70;1.00;;;11.70;99.90;;;;;;5031913;28;20024;-76
2022/01/02 03:50:27;;;;;;;1.15;0.60;;;11.80;99.90;;;;;;5032313;28;20108;-76
2022/01/02 03:52:53;;;;;;;2.30;0.90;;;11.70;99.90;;;;;;5032370;28;20013;-77
2022/01/02 03:55:19;;;;;;;2.30;0.77;;;11.60;99.90;;;;;;5032373;28;20066;-76
2022/01/02 03:57:45;;;;;;;3.42;0.80;;;11.60;99.90;;;;;;5032023;28;20037;-76
2022/01/02 04:00:14;;;;;;;2.05;0.90;;;11.50;99.90;;;;;;5031878;28;20493;-76
2022/01/02 04:02:41;;;;;;;2.88;1.00;;;11.60;99.90;;;;;;5014074;28;20022;-76
2022/01/02 04:05:09;;;;;;;2.80;0.98;;;11.70;99.90;;;;;;5032030;28;20072;-76
2022/01/02 04:07:35;;;;;;;1.88;0.88;;;11.70;99.90;;;;;;5031674;28;20025;-76
2022/01/02 04:10:05;;;;;;;5.65;0.93;;;11.70;99.90;;;;;;5031719;28;20088;-77
2022/01/02 04:12:33;;;;;;;2.67;1.10;;;11.70;99.90;;;;;;5032606;28;20024;-76
2022/01/02 04:15:00;;;;;;;1.52;0.70;;;11.80;99.90;;;;;;5031804;28;20032;-77
2022/01/02 04:17:26;;;;;;;1.98;0.90;;;11.80;99.90;;;;;;5031565;28;20087;-76
2022/01/02 04:19:53;;;;;;;1.73;0.80;;;11.70;99.90;;;;;;5031829;28;20022;-76
2022/01/02 04:22:19;;;;;;;2.45;1.17;;;11.90;99.90;;;;;;5031908;28;20554;-76
2022/01/02 04:24:46;;;;;;;2.17;0.90;;;11.80;99.90;;;;;;5031725;28;20103;-76
2022/01/02 04:27:12;;;;;;;2.58;0.80;;;11.80;99.90;;;;;;5031541;28;20069;-76
2022/01/02 04:29:38;;;;;;;2.65;0.80;;;11.70;99.90;;;;;;5031691;28;20415;-76
2022/01/02 04:32:04;;;;;;;2.10;0.90;;;11.70;99.90;;;;;;5031877;28;20442;-76
2022/01/02 04:34:30;;;;;;;3.17;1.05;;;11.60;99.90;;;;;;5031663;28;20033;-76
2022/01/02 04:36:56;;;;;;;2.90;0.80;;;11.70;99.90;;;;;;5031749;28;20315;-76
2022/01/02 04:39:22;;;;;;;2.90;0.70;;;11.80;99.90;;;;;;5032198;28;20080;-76
2022/01/02 04:41:48;;;;;;;1.55;0.80;;;11.80;99.90;;;;;;5031635;28;20095;-76
2022/01/02 04:44:14;;;;;;;2.33;0.80;;;11.70;99.90;;;;;;5031933;28;20462;-76
2022/01/02 04:46:40;;;;;;;5.88;0.98;;;11.70;99.90;;;;;;5031760;28;20466;-77
2022/01/02 04:49:06;;;;;;;1.65;0.63;;;11.70;99.90;;;;;;5013959;28;20049;-76
2022/01/02 04:51:32;;;;;;;2.73;1.00;;;11.70;99.90;;;;;;5031135;28;20021;-76
2022/01/02 04:53:58;;;;;;;2.50;0.80;;;11.70;99.90;;;;;;5031506;28;20024;-77
2022/01/02 04:56:24;;;;;;;2.40;1.00;;;11.70;99.90;;;;;;5032174;28;20107;-76
2022/01/02 04:58:50;;;;;;;2.38;0.77;;;11.60;99.90;;;;;;5034849;28;20438;-76
2022/01/02 05:01:16;;;;;;;2.40;0.70;;;11.60;99.90;;;;;;5035271;28;20021;-76
2022/01/02 05:03:43;;;;;;;2.90;1.20;;;11.50;99.90;;;;;;5035276;28;20053;-76
2022/01/02 05:06:10;;;;;;;;;;;11.50;99.90;;;;;;5035413;28;20029;-77
2022/01/02 05:08:37;;;;;;;4.60;0.90;;;11.60;99.90;;;;;;5034801;28;20387;-77
2022/01/02 05:11:03;;;;;;;;;;;11.60;99.90;;;;;;5017118;28;20030;-76
2022/01/02 05:13:29;;;;;;;3.75;1.00;;;11.60;99.90;;;;;;5016820;28;20351;-76
2022/01/02 05:15:55;;;;;;;4.15;0.98;;;11.70;99.90;;;;;;5034765;28;20101;-76
2022/01/02 05:18:21;;;;;;;1.77;0.77;;;11.70;99.90;;;;;;5034526;28;20179;-76
2022/01/02 05:20:47;;;;;;;3.20;0.80;;;11.80;99.90;;;;;;5034896;28;20093;-75
2022/01/02 05:23:14;;;;;;;3.00;1.03;;;11.70;99.90;;;;;;5017100;28;20456;-76
2022/01/02 05:25:40;;;;;;;2.22;1.02;;;11.70;99.90;;;;;;5034270;28;20024;-74
2022/01/02 05:28:06;;;;;;;3.88;0.82;;;11.70;99.90;;;;;;5017021;28;20394;-76
2022/01/02 05:30:32;;;;;;;0.93;0.60;;;11.70;99.90;;;;;;5034395;28;20100;-76
2022/01/02 05:32:58;;;;;;;1.80;0.90;;;11.70;99.90;;;;;;5034767;28;20021;-77
2022/01/02 05:35:24;;;;;;;4.88;1.02;;;11.70;99.90;;;;;;5034108;28;20068;-76
2022/01/02 05:37:50;;;;;;;3.50;0.82;;;11.80;99.90;;;;;;5034445;28;20034;-76
2022/01/02 05:40:16;;;;;;;1.80;0.80;;;11.70;99.90;;;;;;5034166;28;20025;-76
2022/01/02 05:42:42;;;;;;;2.38;0.80;;;11.70;99.90;;;;;;5034403;28;20021;-76
2022/01/02 05:45:08;;;;;;;3.08;0.70;;;11.80;99.90;;;;;;5034156;28;20050;-76
2022/01/02 05:47:38;;;;;;;3.45;1.00;;;11.80;99.90;;;;;;5034349;28;20030;-75
2022/01/02 05:50:07;;;;;;;3.78;0.90;;;11.70;99.90;;;;;;5033871;28;20052;-76
2022/01/02 05:52:34;;;;;;;1.83;0.80;;;11.70;99.90;;;;;;5034281;28;20032;-76
2022/01/02 05:55:00;;;;;;;1.70;0.70;;;11.80;99.90;;;;;;5016044;28;20544;-77
2022/01/02 05:57:26;;;;;;;3.60;0.80;;;11.80;99.90;;;;;;5016413;28;20034;-77
2022/01/02 05:59:52;;;;;;;1.33;0.65;;;11.90;99.90;;;;;;5034227;28;20029;-77
2022/01/02 06:02:18;;;;;;;2.13;0.90;;;11.90;99.90;;;;;;5034203;28;20071;-76
2022/01/02 06:04:44;;;;;;;4.10;0.98;;;11.90;99.90;;;;;;5033943;28;20029;-76
2022/01/02 06:07:10;;;;;;;1.70;0.90;;;11.80;99.90;;;;;;5033839;28;20446;-76
2022/01/02 06:09:36;;;;;;;3.95;0.90;;;11.80;99.90;;;;;;5032939;28;20021;-76
2022/01/02 06:12:02;;;;;;;2.05;0.70;;;11.80;99.90;;;;;;5033493;28;20140;-76
2022/01/02 06:14:28;;;;;;;2.97;0.97;;;11.70;99.90;;;;;;5033733;28;20037;-76
2022/01/02 06:16:54;;;;;;;4.00;1.00;;;11.60;99.90;;;;;;5033811;28;20045;-75
2022/01/02 06:19:20;;;;;;;3.47;0.95;;;11.50;99.90;;;;;;5033458;28;20026;-76
2022/01/02 06:21:46;;;;;;;2.20;0.90;;;11.50;99.90;;;;;;5033464;28;20153;-75
2022/01/02 06:24:12;;;;;;;3.30;1.00;;;11.60;99.90;;;;;;5033448;28;20057;-76
2022/01/02 06:26:38;;;;;;;2.50;0.95;;;11.60;99.90;;;;;;5032480;28;20101;-77
2022/01/02 06:29:04;;;;;;;2.47;0.80;;;11.50;99.90;;;;;;5031859;28;20112;-76
2022/01/02 06:31:31;;;;;;;2.77;0.73;;;11.50;99.90;;;;;;5031844;28;20028;-74
2022/01/02 06:33:57;;;;;;;5.18;1.02;;;11.50;99.90;;;;;;5013908;28;20116;-75
2022/01/02 06:36:23;;;;;;;5.65;1.10;;;11.40;99.90;;;;;;5014007;28;20465;-75
2022/01/02 06:38:49;;;;;;;5.05;1.05;;;11.50;99.90;;;;;;5031940;28;20025;-76
2022/01/02 06:41:20;;;;;;;2.25;0.90;;;11.80;99.90;;;;;;5031656;28;20025;-73
2022/01/02 06:43:52;;;;;;;2.25;0.93;;;12.30;99.90;;;;;;5031701;28;20020;-74
2022/01/02 06:46:19;;;;;;;3.03;1.02;;;12.80;99.90;;;;;;5032417;28;20104;-76
2022/01/02 06:48:46;;;;;;;2.42;0.90;;;13.20;99.90;;;;;;5033417;28;20504;-76
2022/01/02 06:51:12;;;;;;;2.60;0.90;;;13.60;99.90;;;;;;5033326;28;20108;-76
2022/01/02 06:53:38;;;;;;;3.00;0.80;;;14.00;99.90;;;;;;5015062;28;20021;-74
2022/01/02 06:56:04;;;;;;;2.35;0.70;;;14.30;99.90;;;;;;5032778;28;20056;-72
2022/01/02 06:58:31;;;;;;;2.27;0.87;;;14.50;99.90;;;;;;5032630;28;20040;-73
2022/01/02 07:00:57;;;;;;;3.28;1.15;;;14.70;99.90;;;;;;5032939;28;20080;-74
2022/01/02 07:03:24;;;;;;;2.30;0.90;;;14.70;99.80;;;;;;5033116;28;20025;-72
2022/01/02 07:05:51;;;;;;;2.35;0.98;;;14.70;99.90;;;;;;5032451;28;20177;-72
2022/01/02 07:08:17;;;;;;;2.47;0.98;;;14.50;99.90;;;;;;5032480;28;20025;-72
2022/01/02 07:10:43;;;;;;;1.70;0.80;;;14.50;99.90;;;;;;5032428;28;20109;-72
2022/01/02 07:13:09;;;;;;;2.00;0.80;;;14.60;99.90;;;;;;5032822;28;20363;-72
2022/01/02 07:15:35;;;;;;;2.43;0.80;;;14.80;99.40;;;;;;5032743;28;20441;-72
2022/01/02 07:18:01;;;;;;;2.43;0.73;;;15.00;99.90;;;;;;5032193;28;20088;-72
2022/01/02 07:20:27;;;;;;;2.28;0.75;;;15.00;99.50;;;;;;5031535;28;20253;-72
2022/01/02 07:22:53;;;;;;;1.97;0.80;;;15.10;99.50;;;;;;5032386;28;20059;-72
2022/01/02 07:25:19;;;;;;;1.33;0.70;;;15.00;99.00;;;;;;5032231;28;20103;-71
2022/01/02 07:27:45;;;;;;;1.47;0.67;;;15.10;98.90;;;;;;5035662;28;20138;-72
2022/01/02 07:30:12;;;;;;;3.07;0.93;;;15.20;98.80;;;;;;5039359;28;20052;-72
2022/01/02 07:32:39;;;;;;;2.28;1.00;;;15.20;99.00;;;;;;5032196;28;20035;-71
2022/01/02 07:35:07;;;;;;;5.78;0.90;;;15.20;99.10;;;;;;5032482;28;20027;-71
2022/01/02 07:37:36;;;;;;;3.00;1.00;;;15.00;99.40;;;;;;5031960;28;20450;-72
2022/01/02 07:40:06;;;;;;;2.80;1.05;;;15.20;99.00;;;;;;5032421;28;20465;-72
2022/01/02 07:42:32;;;;;;;3.42;0.80;;;15.40;99.20;;;;;;5032013;28;20029;-72
2022/01/02 07:44:58;;;;;;;3.20;0.90;;;15.60;98.70;;;;;;5032137;28;20105;-72
2022/01/02 07:47:25;;;;;;;2.87;0.97;;;15.50;99.20;;;;;;5032244;28;20049;-72
2022/01/02 07:49:51;;;;;;;2.28;1.05;;;15.50;98.90;;;;;;5032053;28;20060;-66
2022/01/02 07:52:17;;;;;;;2.40;1.00;;;15.30;99.00;;;;;;5032259;28;20060;-70
2022/01/02 07:54:43;;;;;;;4.53;1.25;;;15.10;99.30;;;;;;5013877;28;20646;-71
2022/01/02 07:57:09;;;;;;;2.70;1.07;;;14.80;99.80;;;;;;5033506;28;20473;-71
2022/01/02 07:59:35;;;;;;;1.80;0.80;;;14.40;99.90;;;;;;5042764;28;20048;-71
2022/01/02 08:02:01;;;;;;;5.93;1.30;;;14.30;99.90;;;;;;5051769;28;20029;-70
2022/01/02 08:04:27;;;;;;;2.25;1.10;;;14.30;99.90;;;;;;5051584;28;20058;-71
2022/01/02 08:06:53;;;;;;;3.17;1.30;;;14.10;99.90;;;;;;5051582;28;20123;-70
2022/01/02 08:09:19;;;;;;;2.97;1.17;;;14.00;99.90;;;;;;5033622;28;20033;-71
2022/01/02 08:11:45;;;;;;;3.60;1.40;;;14.10;99.90;;;;;;5051836;28;20086;-70
2022/01/02 08:14:12;;;;;;;3.03;1.48;;;14.10;99.90;;;;;;5052034;28;20454;-71
2022/01/02 08:16:44;;;;;;;2.20;1.00;;;14.20;99.90;;;;;;5051741;28;20071;-72
2022/01/02 08:19:10;;;;;;;3.30;1.20;;;14.30;99.90;;;;;;5033539;28;20035;-69
2022/01/02 08:21:36;;;;;;;3.60;1.37;;;14.50;99.90;;;;;;5051757;28;20067;-71
2022/01/02 08:24:03;;;;;;;4.23;1.40;;;14.70;99.90;;;;;;5051452;28;20025;-71
2022/01/02 08:26:29;;;;;;;2.47;1.27;;;14.80;99.90;;;;;;5051285;28;20083;-71
2022/01/02 08:28:55;;;;;;;3.27;1.60;;;14.90;99.90;;;;;;5051441;28;20032;-70
2022/01/02 08:31:28;;;;;;;6.47;1.80;;;15.00;99.90;;;;;;5051878;28;20274;-71
2022/01/02 08:33:54;;;;;;;3.38;1.50;;;15.20;99.80;;;;;;5055852;28;20182;-70
2022/01/02 08:36:20;;;;;;;4.88;1.98;;;15.30;99.60;;;;;;5055308;28;20106;-70
2022/01/02 08:38:47;;;;;;;4.73;1.90;;;15.50;98.70;;;;;;5055308;28;20040;-71
2022/01/02 08:41:17;;;;;;;4.75;2.33;;;15.60;99.10;;;;;;5055530;28;20754;-70
2022/01/02 08:43:43;;;;;;;4.18;1.80;;;15.90;99.00;;;;;;5055563;28;20028;-68
2022/01/02 08:46:10;;;;;;;4.00;1.83;;;16.10;98.80;;;;;;5037076;28;20021;-71
2022/01/02 08:48:36;;;;;;;6.75;2.38;;;16.40;98.80;;;;;;5036974;28;20473;-68
2022/01/02 08:51:03;;;;;;;3.60;1.90;;;16.70;99.90;;;;;;5055299;28;20025;-70
2022/01/02 08:53:31;;;;;;;;;;;16.90;98.10;;;;;;5055792;28;20029;-70
2022/01/02 08:55:57;;;;;;;4.28;1.90;;;17.10;97.90;;;;;;5037028;28;19942;-70
2022/01/02 08:58:23;;;;;;;6.35;1.73;;;17.10;98.80;;;;;;5055042;28;20091;-70
2022/01/02 09:00:49;;;;;;;15.03;2.27;;;17.20;97.80;;;;;;5055314;28;20021;-70
2022/01/02 09:03:15;;;;;;;4.33;1.83;;;17.00;97.70;;;;;;5054840;28;20832;-71
2022/01/02 09:05:42;;;;;;;3.17;1.55;;;16.90;97.60;;;;;;5055054;28;20338;-70
2022/01/02 09:08:08;;;;;;;3.30;1.58;;;17.00;97.60;;;;;;5054996;28;20017;-71
2022/01/02 09:10:34;;;;;;;5.53;1.70;;;17.00;97.80;;;;;;5054781;28;20075;-70
2022/01/02 09:13:00;;;;;;;3.27;1.50;;;17.00;97.60;;;;;;5054679;28;20409;-69
2022/01/02 09:15:26;;;;;;;2.80;1.50;;;16.90;97.90;;;;;;5054778;28;20599;-70
2022/01/02 09:17:52;;;;;;;3.47;1.47;;;16.70;98.00;;;;;;5036640;28;20167;-69
2022/01/02 09:20:21;;;;;;;4.63;1.57;;;16.70;97.50;;;;;;5054642;28;20626;-70
2022/01/02 09:22:48;;;;;;;4.95;1.50;;;16.70;97.50;;;;;;5054443;28;20267;-69
2022/01/02 09:25:14;;;;;;;5.93;1.40;;;16.70;97.90;;;;;;5054528;28;20021;-69
2022/01/02 09:27:41;;;;;;;3.75;1.65;;;16.70;97.90;;;;;;5054438;28;20119;-70
2022/01/02 09:30:09;;;;;;;2.97;1.45;;;16.90;98.40;;;;;;5036526;28;20029;-69
2022/01/02 09:32:35;;;;;;;4.05;1.73;;;16.90;98.10;;;;;;5054922;28;20056;-68
2022/01/02 09:35:03;;;;;;;3.73;1.80;;;16.80;98.00;;;;;;5054591;28;20461;-68
2022/01/02 09:37:29;;;;;;;5.85;1.88;;;16.70;98.40;;;;;;5036273;28;20029;-69
2022/01/02 09:39:55;;;;;;;4.03;1.70;;;16.90;98.40;;;;;;5054397;28;20079;-69
2022/01/02 09:42:21;;;;;;;5.22;1.90;;;17.00;98.50;;;;;;5035684;28;20476;-69
2022/01/02 09:44:50;;;;;;;5.35;2.10;;;17.20;98.60;;;;;;5053409;28;20031;-69
2022/01/02 09:47:21;;;;;;;4.75;1.83;;;17.50;98.10;;;;;;5054648;28;20085;-69
2022/01/02 09:49:47;;;;;;;5.68;2.17;;;17.60;97.00;;;;;;5054408;28;20021;-69
2022/01/02 09:52:14;;;;;;;5.25;2.35;;;17.70;96.90;;;;;;5054275;28;20029;-70
2022/01/02 09:54:40;;;;;;;4.38;2.10;;;17.80;96.40;;;;;;5054336;28;20047;-70
2022/01/02 09:57:06;;;;;;;4.90;2.05;;;17.70;96.90;;;;;;5035764;28;20041;-69
2022/01/02 09:59:32;;;;;;;7.35;2.00;;;17.70;97.20;;;;;;5054051;28;20033;-68
2022/01/02 10:01:59;;;;;;;5.00;1.90;;;17.70;97.30;;;;;;5053865;28;20036;-68
2022/01/02 10:04:33;;;;;;;5.00;1.70;;;17.90;97.70;;;;;;5053958;28;20158;-68
2022/01/02 10:07:34;;;;;;;6.50;2.28;;;18.10;97.40;;;;;;5053856;28;20045;-68
2022/01/02 10:10:12;;;;;;;3.88;2.10;;;18.10;96.80;;;;;;5053782;28;20021;-69
2022/01/02 10:12:39;;;;;;;5.80;2.42;;;18.00;96.70;;;;;;5035596;28;20442;-69
2022/01/02 10:15:08;;;;;;;5.25;2.25;;;17.90;96.70;;;;;;5053924;28;20492;-69
2022/01/02 10:18:18;;;;;;;3.92;2.10;;;18.00;96.90;;;;;;5053400;28;20459;-69
2022/01/02 10:20:48;;;;;;;6.43;2.25;;;18.00;96.70;;;;;;5037195;28;20095;-70
2022/01/02 10:23:22;;;;;;;4.93;2.53;;;18.10;96.80;;;;;;5035440;28;20503;-70
2022/01/02 10:25:51;;;;;;;5.10;2.67;;;18.10;96.70;;;;;;5053530;28;20037;-70
2022/01/02 10:28:39;;;;;;;6.72;2.45;;;18.10;96.60;;;;;;5053429;28;20517;-70
2022/01/02 10:31:15;;;;;;;5.38;2.50;;;18.20;96.60;;;;;;5053450;28;20094;-70
2022/01/02 10:34:01;;;;;;;4.85;2.88;;;18.30;96.30;;;;;;5053675;28;20311;-70
2022/01/02 10:36:42;;;;;;;5.35;2.80;;;18.30;96.50;;;;;;5053628;28;20036;-71
2022/01/02 10:39:14;;;;;;;6.22;2.80;;;18.10;96.60;;;;;;5035082;28;20065;-69
2022/01/02 10:41:45;;;;;;;6.40;3.15;;;18.20;96.80;;;;;;5053510;28;20048;-69
2022/01/02 10:44:25;;;;;;;5.22;2.65;;;18.30;96.60;;;;;;5053363;28;20025;-71
2022/01/02 10:47:21;;;;;;;6.53;2.83;;;18.40;96.50;;;;;;5053457;28;20017;-71
2022/01/02 10:50:01;;;;;;;5.53;2.90;;;18.50;96.70;;;;;;5034734;28;20021;-70
2022/01/02 10:52:31;;;;;;;9.02;3.30;;;19.00;95.80;;;;;;5052966;28;20079;-70
2022/01/02 10:55:00;;;;;;;7.03;3.05;;;19.10;95.70;;;;;;5052798;28;20033;-70
2022/01/02 10:57:27;;;;;;;4.90;2.53;;;19.40;96.40;;;;;;5034570;28;20481;-69
2022/01/02 10:59:58;;;;;;;5.15;2.45;;;19.50;96.50;;;;;;5052751;28;20074;-70
2022/01/02 11:02:25;;;;;;;7.63;3.03;;;19.60;96.60;;;;;;5052670;28;20021;-69
2022/01/02 11:05:01;;;;;;;7.00;2.83;;;19.80;96.60;;;;;;5052824;28;20028;-70
2022/01/02 11:07:42;;;;;;;5.20;2.30;;;19.80;96.40;;;;;;5052373;28;20045;-69
2022/01/02 11:10:13;;;;;;;4.65;2.10;;;20.00;96.50;;;;;;5052710;28;20104;-71
2022/01/02 11:12:41;;;;;;;5.00;2.10;;;20.10;96.20;;;;;;5053020;28;20479;-69
2022/01/02 11:15:13;;;;;;;4.75;2.20;;;20.30;95.70;;;;;;5052320;28;20029;-70
2022/01/02 11:17:40;;;;;;;5.70;2.05;;;20.40;96.00;;;;;;5052458;28;20036;-69
2022/01/02 11:20:08;;;;;;;8.45;2.35;;;20.60;95.70;;;;;;5052458;28;20473;-70
2022/01/02 11:22:58;;;;;;;6.65;2.58;;;20.70;95.20;;;;;;5052415;28;20029;-71
2022/01/02 11:25:50;;;;;;;6.18;2.20;;;20.90;95.10;;;;;;5034653;28;20071;-72
2022/01/02 11:28:25;;;;;;;6.32;2.25;;;20.90;95.10;;;;;;5052365;28;20041;-70
2022/01/02 11:30:53;;;;;;;5.53;2.25;;;20.90;95.50;;;;;;5052636;28;20025;-70
2022/01/02 11:33:27;;;;;;;4.57;2.25;;;20.80;95.40;;;;;;5052026;28;20456;-69
2022/01/02 11:35:56;;;;;;;5.72;1.90;;;20.70;95.80;;;;;;5052159;28;20029;-71
2022/01/02 11:38:25;;;;;;;6.05;1.90;;;20.80;95.60;;;;;;5051824;28;20029;-70
2022/01/02 11:40:56;;;;;;;5.95;2.00;;;20.80;95.50;;;;;;5051862;28;20164;-70
2022/01/02 11:43:49;;;;;;;4.90;1.98;;;20.80;95.50;;;;;;5052223;28;20037;-70
2022/01/02 11:46:21;;;;;;;5.25;2.50;;;20.90;95.30;;;;;;5033786;28;20056;-68
2022/01/02 11:49:05;;;;;;;6.50;2.40;;;20.90;95.30;;;;;;5033826;28;20031;-69
2022/01/02 11:51:56;;;;;;;4.47;2.00;;;20.80;95.10;;;;;;5052012;28;20029;-69
2022/01/02 11:54:40;;;;;;;6.20;2.08;;;20.50;95.50;;;;;;5048132;28;20017;-69
2022/01/02 11:57:14;;;;;;;3.67;1.63;;;20.50;96.10;;;;;;5041627;28;20026;-69
2022/01/02 11:59:42;;;;;;;7.00;1.88;;;20.60;95.90;;;;;;5031736;28;20057;-69
2022/01/02 12:02:26;;;;;;;4.07;1.77;;;20.70;95.30;;;;;;5037680;28;20021;-69
2022/01/02 12:05:14;;;;;;;4.75;1.92;;;20.70;95.50;;;;;;5051403;28;20477;-70
2022/01/02 12:07:50;;;;;;;8.32;2.20;;;20.90;95.50;;;;;;5047572;28;20047;-70
2022/01/02 12:10:16;;;;;;;5.07;1.70;;;21.00;95.30;;;;;;5051933;28;20104;-71
2022/01/02 12:12:58;;;;;;;4.63;1.60;;;21.10;95.40;;;;;;5051870;28;20049;-69
2022/01/02 12:15:30;;;;;;;5.13;1.75;;;21.20;95.20;;;;;;5051491;28;20062;-69
2022/01/02 12:18:07;;;;;;;6.53;1.50;;;21.00;95.30;;;;;;5051762;28;20043;-71
2022/01/02 12:21:08;;;;;;;4.70;1.38;;;20.90;95.70;;;;;;5032840;28;20093;-71
2022/01/02 12:23:34;;;;;;;3.33;1.20;;;20.60;96.00;;;;;;5050826;28;20450;-70
2022/01/02 12:26:04;;;;;;;11.05;1.70;;;20.70;96.40;;;;;;5051606;28;20064;-69
2022/01/02 12:28:51;;;;;;;5.10;1.58;;;20.50;96.70;;;;;;5033326;28;20041;-69
2022/01/02 12:31:18;;;;;;;6.93;1.88;;;20.70;96.70;;;;;;5051747;28;20036;-70
2022/01/02 12:33:45;;;;;;;7.05;2.00;;;20.70;96.70;;;;;;5047581;28;20021;-70
2022/01/02 12:36:20;;;;;;;8.00;1.70;;;20.60;96.70;;;;;;5031772;28;20482;-70
2022/01/02 12:38:54;;;;;;;4.32;1.50;;;20.30;96.80;;;;;;5031516;28;20029;-69
2022/01/02 12:41:24;;;;;;;4.95;1.50;;;20.30;97.10;;;;;;5031714;28;20028;-69
2022/01/02 12:44:02;;;;;;;2.78;1.48;;;20.10;97.00;;;;;;5031724;28;20021;-70
2022/01/02 12:46:44;;;;;;;4.13;1.40;;;20.10;97.60;;;;;;5036634;28;20025;-70
2022/01/02 12:49:22;;;;;;;4.88;1.55;;;20.00;97.50;;;;;;5051493;28;20028;-69
2022/01/02 12:51:53;;;;;;;4.65;1.58;;;20.00;97.60;;;;;;5051090;28;20162;-70
2022/01/02 12:54:21;;;;;;;4.05;1.40;;;20.00;97.70;;;;;;5051175;28;20032;-69
2022/01/02 12:56:49;;;;;;;7.05;1.70;;;20.00;97.70;;;;;;5051227;28;20031;-70
2022/01/02 12:59:21;;;;;;;6.72;1.60;;;19.90;97.70;;;;;;5032951;28;20037;-69
2022/01/02 13:02:07;;;;;;;4.60;1.60;;;19.70;97.70;;;;;;5051315;28;20021;-70
2022/01/02 13:04:38;;;;;;;10.98;1.70;;;19.40;98.30;;;;;;5051082;28;20047;-69